Vuktyl, Russia
Current Conditions -  °F | °C
As of 3:00 AM on Monday 26 Jan 2015 (Local Time) from UUYY Reporting Station
Snow Showers Snow Showers  
Wind Chill: 12°   Ceiling: 1000
Heat Index: 23°   Visibility: 0.87mi
Dew Point: 21°   Wind: 11mph
Humidity: 93%   Direction: 200°SSW
Pressure: 30.18"   Gusts: 18mph
Location:  63.86°N, 57.31°E
Report Text: UUYY 260000Z 20005G08MPS 1400 R19/P1500U SHSN BKN010CB OVC066 M05/M06 Q1022 TEMPO 1000 SHSN 19190239 RMK QFE758/1010
Loading
Personal Weather Stations






























Interactive Weather Map New forecast layout! Learn more

10-Day Weather Forecast

Advertisements
Track Severe Weather on mobile